createdAt,value
2023-04-11T00:02:11.922Z,101864.84
2023-04-11T00:04:39.620Z,101860.22
2023-04-11T00:07:08.065Z,101859.50
2023-04-11T00:09:35.421Z,101861.78
2023-04-11T00:12:02.725Z,101869.28
2023-04-11T00:14:32.618Z,101867.13
2023-04-11T00:17:01.359Z,101864.25
2023-04-11T00:19:28.960Z,101860.81
2023-04-11T00:22:00.808Z,101857.84
2023-04-11T00:24:28.196Z,101864.34
2023-04-11T00:26:56.978Z,101858.75
2023-04-11T00:29:24.336Z,101857.78
2023-04-11T00:31:52.999Z,101853.78
2023-04-11T00:34:20.399Z,101853.50
2023-04-11T00:36:48.319Z,101852.69
2023-04-11T00:39:18.883Z,101851.38
2023-04-11T00:41:47.085Z,101847.22
2023-04-11T00:44:14.652Z,101845.91
2023-04-11T00:46:46.728Z,101846.38
2023-04-11T00:49:14.141Z,101853.06
2023-04-11T00:51:41.445Z,101852.09
2023-04-11T00:54:10.615Z,101849.84
2023-04-11T00:56:38.293Z,101848.31
2023-04-11T00:59:06.346Z,101853.53
2023-04-11T01:01:36.577Z,101853.53
2023-04-11T01:04:04.966Z,101866.16
2023-04-11T01:06:33.044Z,101864.13
2023-04-11T01:09:00.610Z,101862.00
2023-04-11T01:11:28.074Z,101857.94
2023-04-11T01:13:56.088Z,101856.63
2023-04-11T01:16:23.544Z,101861.88
2023-04-11T01:18:50.962Z,101873.69
2023-04-11T01:21:20.427Z,101860.19
2023-04-11T01:23:53.062Z,101871.88
2023-04-11T01:26:21.057Z,101865.78
2023-04-11T01:28:48.747Z,101868.28
2023-04-11T01:31:16.266Z,101868.75
2023-04-11T01:33:43.775Z,101865.91
2023-04-11T01:36:11.586Z,101864.97
2023-04-11T01:38:39.007Z,101873.31
2023-04-11T01:41:08.662Z,101868.88
2023-04-11T01:43:36.296Z,101878.78
2023-04-11T01:46:04.079Z,101872.31
2023-04-11T01:48:34.647Z,101878.91
2023-04-11T01:51:02.881Z,101886.50
2023-04-11T01:53:30.426Z,101878.16
2023-04-11T01:55:57.937Z,101884.50
2023-04-11T01:58:25.618Z,101882.09
2023-04-11T02:00:53.106Z,101889.72
2023-04-11T02:03:22.662Z,101889.69
2023-04-11T02:05:50.102Z,101896.34
2023-04-11T02:08:17.718Z,101908.53
2023-04-11T02:10:45.193Z,101909.88
2023-04-11T02:13:12.614Z,101909.63
2023-04-11T02:15:40.121Z,101899.84
2023-04-11T02:18:09.867Z,101911.78
2023-04-11T02:20:37.827Z,101912.09
2023-04-11T02:23:05.188Z,101912.72
2023-04-11T02:25:32.895Z,101918.75
2023-04-11T02:28:00.948Z,101920.66
2023-04-11T02:30:28.289Z,101922.81
2023-04-11T02:32:55.661Z,101928.66
2023-04-11T02:35:22.982Z,101929.00
2023-04-11T02:37:50.268Z,101930.00
2023-04-11T02:40:17.622Z,101933.91
2023-04-11T02:42:45.083Z,101933.22
2023-04-11T02:45:12.569Z,101934.44
2023-04-11T02:47:40.299Z,101934.78
2023-04-11T02:50:09.546Z,101940.31
2023-04-11T02:52:46.580Z,101945.19
2023-04-11T02:55:16.335Z,101942.94
2023-04-11T02:57:43.620Z,101930.88
2023-04-11T03:00:13.795Z,101927.38
2023-04-11T03:02:51.079Z,101923.25
2023-04-11T03:05:23.403Z,101921.78
2023-04-11T03:07:53.617Z,101936.81
2023-04-11T03:10:21.313Z,101930.47
2023-04-11T03:12:48.748Z,101929.53
2023-04-11T03:15:17.893Z,101930.94
2023-04-11T03:17:45.411Z,101938.34
2023-04-11T03:20:20.063Z,101936.88
2023-04-11T03:22:51.502Z,101940.50
2023-04-11T03:25:20.110Z,101942.13
2023-04-11T03:27:49.828Z,101942.59
2023-04-11T03:30:17.167Z,101944.56
2023-04-11T03:32:47.465Z,101951.63
2023-04-11T03:35:15.194Z,101945.19
2023-04-11T03:37:46.543Z,101940.84
2023-04-11T03:40:14.050Z,101938.28
2023-04-11T03:42:46.985Z,101939.84
2023-04-11T03:45:18.568Z,101941.56
2023-04-11T03:47:47.958Z,101938.69
2023-04-11T03:50:19.115Z,101936.31
2023-04-11T03:52:49.749Z,101937.66
2023-04-11T03:55:17.410Z,101933.56
2023-04-11T03:57:45.268Z,101927.41
2023-04-11T04:00:13.305Z,101927.16
2023-04-11T04:02:52.319Z,101925.19
2023-04-11T04:05:20.185Z,101932.97
2023-04-11T04:07:47.536Z,101924.66
2023-04-11T04:10:34.798Z,101930.22
2023-04-11T04:13:02.306Z,101930.22
2023-04-11T04:15:39.751Z,101925.81
2023-04-11T04:18:08.883Z,101918.19
2023-04-11T04:20:47.566Z,101920.69
2023-04-11T04:23:18.382Z,101915.84
2023-04-11T04:26:04.558Z,101916.84
2023-04-11T04:28:33.959Z,101908.53
2023-04-11T04:31:04.268Z,101909.50
2023-04-11T04:33:43.052Z,101907.16
2023-04-11T04:36:21.610Z,101902.38
2023-04-11T04:38:52.382Z,101898.34
2023-04-11T04:41:23.169Z,101893.78
2023-04-11T04:43:59.951Z,101900.59
2023-04-11T04:46:42.638Z,101890.56
2023-04-11T04:49:10.321Z,101889.53
2023-04-11T04:51:38.129Z,101882.41
2023-04-11T04:54:06.325Z,101870.16
2023-04-11T04:56:33.939Z,101880.25
2023-04-11T04:59:01.296Z,101881.97
2023-04-11T05:01:33.396Z,101880.13
2023-04-11T05:04:03.431Z,101882.47
2023-04-11T05:06:45.550Z,101876.47
2023-04-11T05:09:14.758Z,101867.16
2023-04-11T05:11:42.380Z,101868.44
2023-04-11T05:14:10.399Z,101869.19
2023-04-11T05:16:42.628Z,101873.50
2023-04-11T05:19:10.576Z,101870.34
2023-04-11T05:21:42.166Z,101863.94
2023-04-11T05:24:09.542Z,101863.25
2023-04-11T05:26:37.864Z,101868.53
2023-04-11T05:29:07.013Z,101864.06
2023-04-11T05:31:34.866Z,101865.25
2023-04-11T05:34:04.342Z,101863.88
2023-04-11T05:36:32.630Z,101863.72
2023-04-11T05:39:02.073Z,101850.38
2023-04-11T05:41:30.720Z,101858.03
2023-04-11T05:43:58.251Z,101860.25
2023-04-11T05:46:26.016Z,101857.16
2023-04-11T05:48:53.884Z,101854.34
2023-04-11T05:51:21.377Z,101850.09
2023-04-11T05:53:48.730Z,101854.72
2023-04-11T05:56:17.692Z,101849.13
2023-04-11T05:58:46.170Z,101855.28
2023-04-11T06:01:18.828Z,101856.44
2023-04-11T06:03:47.130Z,101851.97
2023-04-11T06:06:14.891Z,101857.13
2023-04-11T06:08:43.076Z,101854.09
2023-04-11T06:11:11.434Z,101858.91
2023-04-11T06:13:39.640Z,101857.25
2023-04-11T06:16:07.573Z,101869.38
2023-04-11T06:18:34.907Z,101859.25
2023-04-11T06:21:02.339Z,101866.34
2023-04-11T06:23:29.785Z,101855.06
2023-04-11T06:25:57.304Z,101858.38
2023-04-11T06:28:24.973Z,101866.31
2023-04-11T06:30:53.105Z,101860.69
2023-04-11T06:33:20.999Z,101846.41
2023-04-11T06:35:48.621Z,101849.53
2023-04-11T06:38:16.278Z,101848.50
2023-04-11T06:40:47.187Z,101841.38
2023-04-11T06:43:33.207Z,101833.88
2023-04-11T06:46:00.897Z,101827.28
2023-04-11T06:48:28.272Z,101835.38
2023-04-11T06:50:58.980Z,101836.34
2023-04-11T06:53:27.206Z,101832.59
2023-04-11T06:55:54.464Z,101844.94
2023-04-11T06:58:21.932Z,101838.97
2023-04-11T07:00:49.331Z,101829.50
2023-04-11T07:03:17.157Z,101825.00
2023-04-11T07:05:45.156Z,101816.31
2023-04-11T07:08:12.822Z,101812.88
2023-04-11T07:10:40.337Z,101811.03
2023-04-11T07:13:07.875Z,101810.75
2023-04-11T07:15:35.162Z,101806.53
2023-04-11T07:18:02.689Z,101803.72
2023-04-11T07:20:33.170Z,101805.75
2023-04-11T07:23:00.855Z,101800.25
2023-04-11T07:25:30.849Z,101799.00
2023-04-11T07:27:58.495Z,101800.13
2023-04-11T07:30:25.959Z,101794.31
2023-04-11T07:32:54.977Z,101789.56
2023-04-11T07:35:22.730Z,101797.84
2023-04-11T07:37:50.131Z,101785.81
2023-04-11T07:40:17.633Z,101781.13
2023-04-11T07:42:46.512Z,101787.69
2023-04-11T07:45:15.438Z,101774.19
2023-04-11T07:47:42.791Z,101773.50
2023-04-11T07:50:12.310Z,101766.44
2023-04-11T07:52:40.152Z,101772.78
2023-04-11T07:55:10.652Z,101771.31
2023-04-11T07:57:39.537Z,101773.63
2023-04-11T08:00:11.554Z,101773.53
2023-04-11T08:03:00.000Z,101770.22
2023-04-11T08:05:28.365Z,101779.41
2023-04-11T08:07:56.728Z,101761.06
2023-04-11T08:10:25.786Z,101760.66
2023-04-11T08:12:53.547Z,101764.63
2023-04-11T08:15:20.935Z,101758.25
2023-04-11T08:17:50.247Z,101764.03
2023-04-11T08:20:19.413Z,101752.22
2023-04-11T08:22:47.177Z,101747.34
2023-04-11T08:25:15.588Z,101746.41
2023-04-11T08:27:43.077Z,101744.22
2023-04-11T08:30:10.791Z,101747.03
2023-04-11T08:32:38.929Z,101761.72
2023-04-11T08:35:06.910Z,101753.38
2023-04-11T08:37:37.835Z,101725.13
2023-04-11T08:40:07.282Z,101744.22
2023-04-11T08:42:35.602Z,101749.09
2023-04-11T08:45:06.251Z,101742.88
2023-04-11T08:47:33.810Z,101734.56
2023-04-11T08:50:01.528Z,101738.78
2023-04-11T08:52:31.698Z,101729.31
2023-04-11T08:55:00.048Z,101738.78
2023-04-11T09:00:19.383Z,101733.56
2023-04-11T09:02:59.728Z,101714.97
2023-04-11T09:05:36.522Z,101728.72
2023-04-11T09:08:09.349Z,101729.22
2023-04-11T09:11:02.067Z,101731.50
2023-04-11T09:13:29.678Z,101727.25
2023-04-11T09:16:15.754Z,101720.84
2023-04-11T09:18:45.360Z,101725.19
2023-04-11T09:21:17.652Z,101731.00
2023-04-11T09:23:51.225Z,101709.31
2023-04-11T09:26:29.878Z,101719.22
2023-04-11T09:28:57.665Z,101710.44
2023-04-11T09:31:42.220Z,101703.66
2023-04-11T09:34:10.355Z,101701.22
2023-04-11T09:36:38.958Z,101695.41
2023-04-11T09:39:19.878Z,101698.47
2023-04-11T09:41:47.419Z,101686.88
2023-04-11T09:44:15.053Z,101692.59
2023-04-11T09:47:00.600Z,101677.59
2023-04-11T09:49:30.332Z,101671.28
2023-04-11T09:52:18.184Z,101658.31
2023-04-11T09:54:46.616Z,101658.69
2023-04-11T09:57:14.576Z,101649.13
2023-04-11T09:59:42.645Z,101651.22
2023-04-11T10:02:10.224Z,101643.47
2023-04-11T10:04:39.150Z,101635.25
2023-04-11T10:07:14.545Z,101613.13
2023-04-11T10:09:43.870Z,101630.22
2023-04-11T10:12:33.729Z,101625.50
2023-04-11T10:15:20.027Z,101621.34
2023-04-11T10:18:12.215Z,101632.06
2023-04-11T10:20:46.617Z,101615.81
2023-04-11T10:23:15.026Z,101612.41
2023-04-11T10:25:54.776Z,101611.19
2023-04-11T10:28:33.926Z,101596.06
2023-04-11T10:31:06.114Z,101599.81
2023-04-11T10:33:34.989Z,101595.97
2023-04-11T10:36:06.020Z,101593.47
2023-04-11T10:38:48.896Z,101591.06
2023-04-11T10:41:17.721Z,101593.94
2023-04-11T10:43:46.276Z,101572.75
2023-04-11T10:46:22.271Z,101575.97
2023-04-11T10:49:04.644Z,101566.56
2023-04-11T10:51:34.241Z,101566.34
2023-04-11T10:54:02.455Z,101557.34
2023-04-11T10:56:55.689Z,101557.78
2023-04-11T10:59:32.860Z,101556.94
2023-04-11T11:02:02.462Z,101573.81
2023-04-11T11:04:33.146Z,101552.81
2023-04-11T11:07:02.111Z,101550.63
2023-04-11T11:09:31.491Z,101536.88
2023-04-11T11:12:09.383Z,101534.63
2023-04-11T11:14:38.156Z,101534.41
2023-04-11T11:17:06.110Z,101532.34
2023-04-11T11:19:34.555Z,101523.09
2023-04-11T11:22:06.845Z,101520.44
2023-04-11T11:24:36.905Z,101508.53
2023-04-11T11:27:05.483Z,101489.63
2023-04-11T11:29:38.254Z,101499.28
2023-04-11T11:34:53.750Z,101496.41
2023-04-11T11:37:23.802Z,101499.50
2023-04-11T11:39:52.440Z,101495.41
2023-04-11T11:42:20.477Z,101471.78
2023-04-11T11:44:48.232Z,101472.41
2023-04-11T11:47:17.081Z,101475.28
2023-04-11T11:49:56.873Z,101480.63
2023-04-11T11:52:40.214Z,101464.19
2023-04-11T11:55:28.759Z,101458.84
2023-04-11T11:58:12.681Z,101462.75
2023-04-11T12:00:51.913Z,101458.66
2023-04-11T12:03:25.005Z,101451.84
2023-04-11T12:05:56.467Z,101448.59
2023-04-11T12:08:24.839Z,101439.75
2023-04-11T12:10:53.854Z,101443.44
2023-04-11T12:13:23.928Z,101438.31
2023-04-11T12:15:56.165Z,101442.44
2023-04-11T12:18:27.443Z,101432.34
2023-04-11T12:20:55.879Z,101424.34
2023-04-11T12:23:23.277Z,101427.81
2023-04-11T12:25:54.378Z,101419.41
2023-04-11T12:28:40.778Z,101414.06
2023-04-11T12:31:08.465Z,101417.34
2023-04-11T12:33:39.168Z,101402.56
2023-04-11T12:36:11.455Z,101394.34
2023-04-11T12:38:39.034Z,101405.44
2023-04-11T12:41:30.245Z,101390.41
2023-04-11T12:43:54.141Z,101393.50
2023-04-11T12:46:23.691Z,101392.88
2023-04-11T12:48:54.539Z,101387.34
2023-04-11T12:51:22.340Z,101388.53
2023-04-11T12:53:49.583Z,101383.66
2023-04-11T12:56:16.922Z,101393.50
2023-04-11T12:58:45.225Z,101383.25
2023-04-11T13:01:12.493Z,101381.19
2023-04-11T13:03:40.072Z,101393.47
2023-04-11T13:06:08.028Z,101373.56
2023-04-11T13:08:35.327Z,101378.72
2023-04-11T13:11:02.650Z,101381.56
2023-04-11T13:13:30.094Z,101376.22
2023-04-11T13:15:57.628Z,101378.31
2023-04-11T13:21:28.377Z,101368.22
2023-04-11T13:23:56.481Z,101361.00
2023-04-11T13:26:23.830Z,101366.56
2023-04-11T13:28:51.455Z,101360.22
2023-04-11T13:31:19.617Z,101364.91
2023-04-11T13:33:48.364Z,101365.53
2023-04-11T13:36:15.925Z,101360.59
2023-04-11T13:38:43.264Z,101366.97
2023-04-11T13:41:11.485Z,101373.97
2023-04-11T13:43:39.534Z,101360.81
2023-04-11T13:46:07.113Z,101348.88
2023-04-11T13:48:34.847Z,101355.88
2023-04-11T13:51:02.128Z,101353.22
2023-04-11T13:53:29.509Z,101353.63
2023-04-11T13:56:15.230Z,101353.22
2023-04-11T13:59:01.128Z,101338.25
2023-04-11T14:01:47.009Z,101344.59
2023-04-11T14:04:14.595Z,101355.31
2023-04-11T14:06:42.411Z,101339.28
2023-04-11T14:09:28.372Z,101347.47
2023-04-11T14:11:57.106Z,101337.00
2023-04-11T14:14:24.647Z,101342.16
2023-04-11T14:16:52.110Z,101342.97
2023-04-11T14:19:19.568Z,101344.22
2023-04-11T14:22:05.983Z,101346.69
2023-04-11T14:24:33.407Z,101332.34
2023-04-11T14:27:03.468Z,101340.53
2023-04-11T14:29:31.422Z,101330.28
2023-04-11T14:31:58.823Z,101333.16
2023-04-11T14:34:46.331Z,101332.97
2023-04-11T14:37:32.211Z,101339.09
2023-04-11T14:40:18.191Z,101330.28
2023-04-11T14:42:46.108Z,101336.88
2023-04-11T14:45:31.914Z,101330.09
2023-04-11T14:47:59.378Z,101334.41
2023-04-11T14:50:27.761Z,101326.81
2023-04-11T14:53:14.964Z,101327.84
2023-04-11T14:56:04.351Z,101327.63
2023-04-11T14:58:50.550Z,101318.00
2023-04-11T15:01:37.524Z,101326.22
2023-04-11T15:04:05.009Z,101325.78
2023-04-11T15:07:09.997Z,101314.72
2023-04-11T15:09:55.783Z,101313.88
2023-04-11T15:12:23.039Z,101307.50
2023-04-11T15:14:50.532Z,101308.13
2023-04-11T15:17:17.813Z,101312.03
2023-04-11T15:19:45.069Z,101305.03
2023-04-11T15:22:12.454Z,101301.75
2023-04-11T15:24:39.879Z,101296.63
2023-04-11T15:27:07.198Z,101299.50
2023-04-11T15:29:36.677Z,101296.22
2023-04-11T15:32:04.084Z,101295.78
2023-04-11T15:34:31.702Z,101297.63
2023-04-11T15:37:00.035Z,101287.56
2023-04-11T15:39:27.455Z,101276.91
2023-04-11T15:41:54.742Z,101281.03
2023-04-11T15:44:22.012Z,101282.22
2023-04-11T15:46:49.612Z,101275.84
2023-04-11T15:49:16.975Z,101281.53
2023-04-11T15:51:46.729Z,101280.03
2023-04-11T15:54:14.014Z,101284.53
2023-04-11T15:56:41.350Z,101275.25
2023-04-11T15:59:27.231Z,101275.47
2023-04-11T16:01:54.700Z,101274.84
2023-04-11T16:04:22.209Z,101269.69
2023-04-11T16:06:49.560Z,101274.97
2023-04-11T16:09:18.349Z,101283.53
2023-04-11T16:11:45.940Z,101280.22
2023-04-11T16:14:13.557Z,101279.16
2023-04-11T16:16:41.197Z,101276.03
2023-04-11T16:19:08.559Z,101273.13
2023-04-11T16:21:36.116Z,101284.16
2023-04-11T16:24:03.372Z,101276.31
2023-04-11T16:26:31.008Z,101283.25
2023-04-11T16:28:58.313Z,101280.50
2023-04-11T16:31:25.813Z,101290.53
2023-04-11T16:33:53.539Z,101293.13
2023-04-11T16:36:22.249Z,101295.09
2023-04-11T16:38:52.755Z,101293.19
2023-04-11T16:41:20.414Z,101287.81
2023-04-11T16:43:47.878Z,101288.38
2023-04-11T16:46:16.286Z,101279.28
2023-04-11T16:48:44.263Z,101275.75
2023-04-11T16:51:12.614Z,101285.38
2023-04-11T16:53:41.019Z,101281.44
2023-04-11T16:56:08.715Z,101278.50
2023-04-11T16:58:36.175Z,101282.94
2023-04-11T17:01:03.645Z,101286.75
2023-04-11T17:03:31.325Z,101281.81
2023-04-11T17:05:58.791Z,101288.47
2023-04-11T17:08:26.826Z,101287.22
2023-04-11T17:10:54.224Z,101286.31
2023-04-11T17:13:21.579Z,101290.75
2023-04-11T17:15:49.027Z,101293.94
2023-04-11T17:18:16.379Z,101293.13
2023-04-11T17:20:43.924Z,101286.50
2023-04-11T17:23:11.388Z,101297.47
2023-04-11T17:25:38.836Z,101290.72
2023-04-11T17:28:06.279Z,101281.69
2023-04-11T17:30:33.765Z,101282.22
2023-04-11T17:33:01.406Z,101282.13
2023-04-11T17:35:29.175Z,101286.88
2023-04-11T17:37:56.588Z,101282.94
2023-04-11T17:40:24.229Z,101283.41
2023-04-11T17:42:51.665Z,101296.41
2023-04-11T17:45:19.638Z,101284.31
2023-04-11T17:47:48.312Z,101293.47
2023-04-11T17:50:16.767Z,101292.72
2023-04-11T17:52:46.403Z,101278.16
2023-04-11T17:55:16.065Z,101279.25
2023-04-11T17:57:45.238Z,101289.03
2023-04-11T18:00:20.087Z,101281.34
2023-04-11T18:02:50.939Z,101290.28
2023-04-11T18:05:24.970Z,101287.06
2023-04-11T18:07:57.831Z,101288.78
2023-04-11T18:10:27.678Z,101278.25
2023-04-11T18:12:57.142Z,101285.44
2023-04-11T18:15:25.334Z,101269.03
2023-04-11T18:17:53.058Z,101289.59
2023-04-11T18:20:20.483Z,101274.22
2023-04-11T18:22:49.717Z,101274.22
2023-04-11T18:25:17.112Z,101286.00
2023-04-11T18:27:44.557Z,101274.59
2023-04-11T18:30:13.633Z,101272.84
2023-04-11T18:32:45.828Z,101282.31
2023-04-11T18:35:15.937Z,101278.06
2023-04-11T18:37:43.683Z,101284.00
2023-04-11T18:40:14.344Z,101277.25
2023-04-11T18:42:47.946Z,101272.13
2023-04-11T18:45:18.199Z,101274.16
2023-04-11T18:47:46.724Z,101266.56
2023-04-11T18:50:15.454Z,101249.69
2023-04-11T18:52:44.581Z,101253.16
2023-04-11T18:55:12.513Z,101253.19
2023-04-11T18:57:40.340Z,101258.31
2023-04-11T19:00:18.400Z,101257.84
2023-04-11T19:02:47.807Z,101245.13
2023-04-11T19:05:16.192Z,101243.19
2023-04-11T19:07:44.391Z,101232.78
2023-04-11T19:10:12.523Z,101232.59
2023-04-11T19:12:40.697Z,101231.78
2023-04-11T19:15:09.354Z,101238.22
2023-04-11T19:17:38.730Z,101227.03
2023-04-11T19:20:07.493Z,101234.31
2023-04-11T19:22:36.196Z,101237.16
2023-04-11T19:25:03.991Z,101222.13
2023-04-11T19:27:31.505Z,101222.28
2023-04-11T19:29:58.924Z,101236.34
2023-04-11T19:32:26.275Z,101221.28
2023-04-11T19:34:53.604Z,101213.53
2023-04-11T19:37:22.890Z,101221.47
2023-04-11T19:39:50.230Z,101213.38
2023-04-11T19:42:18.055Z,101223.13
2023-04-11T19:44:45.697Z,101217.00
2023-04-11T19:47:13.093Z,101205.28
2023-04-11T19:49:40.780Z,101203.19
2023-04-11T19:52:08.130Z,101214.44
2023-04-11T19:54:35.461Z,101209.97
2023-04-11T19:57:02.867Z,101215.25
2023-04-11T19:59:30.225Z,101216.75
2023-04-11T20:02:01.882Z,101222.84
2023-04-11T20:04:29.481Z,101218.84
2023-04-11T20:06:58.737Z,101212.25
2023-04-11T20:09:26.136Z,101213.09
2023-04-11T20:11:53.511Z,101214.59
2023-04-11T20:14:21.120Z,101212.44
2023-04-11T20:16:48.614Z,101208.81
2023-04-11T20:19:15.951Z,101209.00
2023-04-11T20:21:43.486Z,101208.69
2023-04-11T20:24:10.865Z,101220.69
2023-04-11T20:26:38.331Z,101212.94
2023-04-11T20:29:06.775Z,101214.59
2023-04-11T20:31:34.252Z,101202.19
2023-04-11T20:34:01.800Z,101206.50
2023-04-11T20:36:29.539Z,101215.94
2023-04-11T20:38:58.367Z,101210.66
2023-04-11T20:41:44.124Z,101205.06
2023-04-11T20:44:11.444Z,101212.47
2023-04-11T20:46:40.090Z,101222.06
2023-04-11T20:49:07.642Z,101213.97
2023-04-11T20:51:35.986Z,101215.13
2023-04-11T20:54:22.136Z,101212.34
2023-04-11T20:56:49.540Z,101207.88
2023-04-11T20:59:55.750Z,101212.34
2023-04-11T21:02:24.201Z,101206.75
2023-04-11T21:05:11.388Z,101222.59
2023-04-11T21:07:39.624Z,101206.75
2023-04-11T21:10:08.045Z,101208.06
2023-04-11T21:12:54.609Z,101217.97
2023-04-11T21:15:22.296Z,101213.69
2023-04-11T21:17:50.560Z,101200.81
2023-04-11T21:20:18.475Z,101205.78
2023-04-11T21:22:47.977Z,101199.81
2023-04-11T21:25:16.471Z,101209.88
2023-04-11T21:27:44.046Z,101197.31
2023-04-11T21:30:12.664Z,101206.41
2023-04-11T21:32:40.770Z,101204.75
2023-04-11T21:35:08.974Z,101202.00
2023-04-11T21:37:36.389Z,101193.56
2023-04-11T21:40:22.323Z,101198.84
2023-04-11T21:43:08.165Z,101181.19
2023-04-11T21:46:12.818Z,101194.22
2023-04-11T21:48:59.118Z,101190.25
2023-04-11T21:52:03.918Z,101199.19
2023-04-11T21:54:50.222Z,101196.19
2023-04-11T21:57:36.097Z,101191.59
2023-04-11T22:00:41.882Z,101185.66
2023-04-11T22:03:12.199Z,101178.72
2023-04-11T22:05:42.367Z,101173.59
2023-04-11T22:08:14.662Z,101182.34
2023-04-11T22:10:48.444Z,101179.03
2023-04-11T22:13:35.171Z,101188.94
2023-04-11T22:16:26.635Z,101185.34
2023-04-11T22:19:30.880Z,101179.38
2023-04-11T22:22:17.794Z,101177.41
2023-04-11T22:25:03.640Z,101171.63
2023-04-11T22:27:34.753Z,101170.94
2023-04-11T22:30:20.401Z,101164.38
2023-04-11T22:32:49.114Z,101154.94
2023-04-11T22:35:34.903Z,101163.03
2023-04-11T22:38:03.789Z,101146.00
2023-04-11T22:40:31.152Z,101148.47
2023-04-11T22:42:58.491Z,101131.19
2023-04-11T22:45:25.922Z,101146.38
2023-04-11T22:47:57.269Z,101136.44
2023-04-11T22:50:49.608Z,101136.78
2023-04-11T22:53:35.917Z,101136.28
2023-04-11T22:56:03.209Z,101117.78
2023-04-11T22:58:30.543Z,101113.31
2023-04-11T23:00:57.848Z,101129.00
2023-04-11T23:03:25.623Z,101105.06
2023-04-11T23:05:52.938Z,101099.47
2023-04-11T23:08:20.242Z,101086.28
2023-04-11T23:10:47.739Z,101096.44
2023-04-11T23:13:15.812Z,101093.50
2023-04-11T23:15:43.129Z,101096.84
2023-04-11T23:18:10.505Z,101081.97
2023-04-11T23:20:37.854Z,101081.50
2023-04-11T23:23:05.809Z,101077.38
2023-04-11T23:25:33.476Z,101084.31
2023-04-11T23:28:01.014Z,101073.25
2023-04-11T23:30:28.748Z,101066.81
2023-04-11T23:32:56.107Z,101068.97
2023-04-11T23:35:44.694Z,101060.38
2023-04-11T23:38:12.092Z,101070.44
2023-04-11T23:40:39.646Z,101079.38
2023-04-11T23:43:06.923Z,101074.59
2023-04-11T23:45:34.295Z,101066.50
2023-04-11T23:48:01.825Z,101066.66
2023-04-11T23:50:29.156Z,101067.50
2023-04-11T23:52:56.398Z,101059.56
2023-04-11T23:55:23.828Z,101052.66
2023-04-11T23:57:51.142Z,101051.34
